sensor_id;sensor_type;location;lat;lon;timestamp;pressure;altitude;pressure_sealevel;temperature;humidity
65756;BME280;69208;47.502;18.940;2023-12-04T00:00:03;98970.22;;;-5.85;100.00
65756;BME280;69208;47.502;18.940;2023-12-04T00:01:07;98980.09;;;-5.82;100.00
65756;BME280;69208;47.502;18.940;2023-12-04T00:02:10;98977.06;;;-5.86;100.00
65756;BME280;69208;47.502;18.940;2023-12-04T00:03:13;98975.19;;;-5.92;100.00
65756;BME280;69208;47.502;18.940;2023-12-04T00:04:16;98974.69;;;-5.87;100.00
65756;BME280;69208;47.502;18.940;2023-12-04T00:05:19;98975.03;;;-5.90;100.00
65756;BME280;69208;47.502;18.940;2023-12-04T00:06:22;98974.06;;;-5.89;100.00
65756;BME280;69208;47.502;18.940;2023-12-04T00:07:26;98973.91;;;-5.88;100.00
65756;BME280;69208;47.502;18.940;2023-12-04T00:08:29;98970.91;;;-5.91;100.00
65756;BME280;69208;47.502;18.940;2023-12-04T00:09:32;98965.47;;;-5.88;100.00
65756;BME280;69208;47.502;18.940;2023-12-04T00:10:35;98964.47;;;-5.79;100.00
65756;BME280;69208;47.502;18.940;2023-12-04T00:11:38;98974.66;;;-5.79;100.00
65756;BME280;69208;47.502;18.940;2023-12-04T00:12:41;98972.28;;;-5.81;100.00
65756;BME280;69208;47.502;18.940;2023-12-04T00:13:44;98968.59;;;-5.78;100.00
65756;BME280;69208;47.502;18.940;2023-12-04T00:14:47;98967.00;;;-5.79;100.00
65756;BME280;69208;47.502;18.940;2023-12-04T00:15:50;98963.19;;;-5.83;100.00
65756;BME280;69208;47.502;18.940;2023-12-04T00:16:53;98966.72;;;-5.84;100.00
65756;BME280;69208;47.502;18.940;2023-12-04T00:17:55;98969.25;;;-5.84;100.00
65756;BME280;69208;47.502;18.940;2023-12-04T00:18:58;98973.84;;;-5.80;100.00
65756;BME280;69208;47.502;18.940;2023-12-04T00:20:01;98971.94;;;-5.78;100.00
65756;BME280;69208;47.502;18.940;2023-12-04T00:21:05;98972.72;;;-5.77;100.00
65756;BME280;69208;47.502;18.940;2023-12-04T00:22:08;98982.00;;;-5.76;100.00
65756;BME280;69208;47.502;18.940;2023-12-04T00:23:11;98975.56;;;-5.72;100.00
65756;BME280;69208;47.502;18.940;2023-12-04T00:24:14;98972.22;;;-5.73;100.00
65756;BME280;69208;47.502;18.940;2023-12-04T00:25:16;98970.47;;;-5.72;100.00
65756;BME280;69208;47.502;18.940;2023-12-04T00:26:19;98975.75;;;-5.74;100.00
65756;BME280;69208;47.502;18.940;2023-12-04T00:27:22;98971.00;;;-5.77;100.00
65756;BME280;69208;47.502;18.940;2023-12-04T00:28:29;98977.81;;;-5.77;100.00
65756;BME280;69208;47.502;18.940;2023-12-04T00:29:32;98970.16;;;-5.77;99.85
65756;BME280;69208;47.502;18.940;2023-12-04T00:30:35;98971.94;;;-5.78;99.82
65756;BME280;69208;47.502;18.940;2023-12-04T00:31:38;98972.13;;;-5.79;99.98
65756;BME280;69208;47.502;18.940;2023-12-04T00:32:41;98981.34;;;-5.78;99.86
65756;BME280;69208;47.502;18.940;2023-12-04T00:33:44;98974.81;;;-5.81;100.00
65756;BME280;69208;47.502;18.940;2023-12-04T00:34:48;98972.44;;;-5.82;100.00
65756;BME280;69208;47.502;18.940;2023-12-04T00:35:51;98977.56;;;-5.82;99.98
65756;BME280;69208;47.502;18.940;2023-12-04T00:36:54;98974.38;;;-5.84;99.87
65756;BME280;69208;47.502;18.940;2023-12-04T00:37:56;98975.53;;;-5.95;99.87
65756;BME280;69208;47.502;18.940;2023-12-04T00:38:59;98973.28;;;-5.90;99.70
65756;BME280;69208;47.502;18.940;2023-12-04T00:40:03;98969.94;;;-5.90;99.77
65756;BME280;69208;47.502;18.940;2023-12-04T00:41:07;98975.53;;;-5.95;99.69
65756;BME280;69208;47.502;18.940;2023-12-04T00:42:10;98978.59;;;-6.00;99.67
65756;BME280;69208;47.502;18.940;2023-12-04T00:43:13;98981.88;;;-5.91;99.48
65756;BME280;69208;47.502;18.940;2023-12-04T00:44:16;98982.25;;;-5.94;99.22
65756;BME280;69208;47.502;18.940;2023-12-04T00:45:19;98975.09;;;-5.99;99.04
65756;BME280;69208;47.502;18.940;2023-12-04T00:46:22;98984.38;;;-6.06;98.97
65756;BME280;69208;47.502;18.940;2023-12-04T00:47:25;98975.25;;;-6.00;98.92
65756;BME280;69208;47.502;18.940;2023-12-04T00:48:29;98978.44;;;-6.06;99.20
65756;BME280;69208;47.502;18.940;2023-12-04T00:49:32;98977.97;;;-6.02;99.31
65756;BME280;69208;47.502;18.940;2023-12-04T00:50:35;98984.03;;;-6.03;99.16
65756;BME280;69208;47.502;18.940;2023-12-04T00:51:38;98976.41;;;-6.11;99.39
65756;BME280;69208;47.502;18.940;2023-12-04T00:52:42;98976.41;;;-6.11;99.13
65756;BME280;69208;47.502;18.940;2023-12-04T00:53:44;98974.97;;;-6.13;99.45
65756;BME280;69208;47.502;18.940;2023-12-04T00:54:47;98978.03;;;-6.26;99.49
65756;BME280;69208;47.502;18.940;2023-12-04T00:55:50;98980.94;;;-6.37;99.84
65756;BME280;69208;47.502;18.940;2023-12-04T00:56:53;98979.50;;;-6.40;99.88
65756;BME280;69208;47.502;18.940;2023-12-04T00:57:56;98977.28;;;-6.43;99.81
65756;BME280;69208;47.502;18.940;2023-12-04T00:59:00;98979.69;;;-6.42;100.00
65756;BME280;69208;47.502;18.940;2023-12-04T01:00:04;98973.41;;;-6.31;100.00
65756;BME280;69208;47.502;18.940;2023-12-04T01:01:07;98973.41;;;-6.31;100.00
65756;BME280;69208;47.502;18.940;2023-12-04T01:02:10;98973.28;;;-6.29;100.00
65756;BME280;69208;47.502;18.940;2023-12-04T01:03:13;98973.41;;;-6.31;100.00
65756;BME280;69208;47.502;18.940;2023-12-04T01:04:16;98972.00;;;-6.33;100.00
65756;BME280;69208;47.502;18.940;2023-12-04T01:05:19;98971.84;;;-6.40;100.00
65756;BME280;69208;47.502;18.940;2023-12-04T01:06:23;98972.03;;;-6.42;100.00
65756;BME280;69208;47.502;18.940;2023-12-04T01:07:27;98971.06;;;-6.41;100.00
65756;BME280;69208;47.502;18.940;2023-12-04T01:08:30;98968.66;;;-6.34;100.00
65756;BME280;69208;47.502;18.940;2023-12-04T01:09:36;98965.00;;;-6.39;100.00
65756;BME280;69208;47.502;18.940;2023-12-04T01:10:40;98977.25;;;-6.35;100.00
65756;BME280;69208;47.502;18.940;2023-12-04T01:11:42;98973.94;;;-6.35;100.00
65756;BME280;69208;47.502;18.940;2023-12-04T01:12:45;98974.41;;;-6.40;100.00
65756;BME280;69208;47.502;18.940;2023-12-04T01:13:49;98978.38;;;-6.37;100.00
65756;BME280;69208;47.502;18.940;2023-12-04T01:14:52;98970.88;;;-6.39;100.00
65756;BME280;69208;47.502;18.940;2023-12-04T01:15:55;98970.75;;;-6.46;100.00
65756;BME280;69208;47.502;18.940;2023-12-04T01:16:58;98974.91;;;-6.53;100.00
65756;BME280;69208;47.502;18.940;2023-12-04T01:18:01;98981.59;;;-6.52;100.00
65756;BME280;69208;47.502;18.940;2023-12-04T01:19:05;98980.47;;;-6.57;100.00
65756;BME280;69208;47.502;18.940;2023-12-04T01:20:08;98982.88;;;-6.56;100.00
65756;BME280;69208;47.502;18.940;2023-12-04T01:21:11;98977.47;;;-6.45;100.00
65756;BME280;69208;47.502;18.940;2023-12-04T01:22:14;98978.72;;;-6.49;100.00
65756;BME280;69208;47.502;18.940;2023-12-04T01:23:18;98987.66;;;-6.53;100.00
65756;BME280;69208;47.502;18.940;2023-12-04T01:24:21;98985.91;;;-6.44;100.00
65756;BME280;69208;47.502;18.940;2023-12-04T01:25:24;98984.12;;;-6.44;100.00
65756;BME280;69208;47.502;18.940;2023-12-04T01:26:27;98988.78;;;-6.47;100.00
65756;BME280;69208;47.502;18.940;2023-12-04T01:27:29;98983.66;;;-6.55;100.00
65756;BME280;69208;47.502;18.940;2023-12-04T01:28:32;98995.31;;;-6.53;100.00
65756;BME280;69208;47.502;18.940;2023-12-04T01:29:35;98988.91;;;-6.57;100.00
65756;BME280;69208;47.502;18.940;2023-12-04T01:30:38;98991.66;;;-6.58;100.00
65756;BME280;69208;47.502;18.940;2023-12-04T01:31:42;98992.91;;;-6.62;100.00
65756;BME280;69208;47.502;18.940;2023-12-04T01:32:45;98993.72;;;-6.62;100.00
65756;BME280;69208;47.502;18.940;2023-12-04T01:33:48;98993.06;;;-6.64;100.00
65756;BME280;69208;47.502;18.940;2023-12-04T01:34:51;98998.16;;;-6.72;100.00
65756;BME280;69208;47.502;18.940;2023-12-04T01:35:54;98995.31;;;-6.61;100.00
65756;BME280;69208;47.502;18.940;2023-12-04T01:36:57;98995.63;;;-6.64;100.00
65756;BME280;69208;47.502;18.940;2023-12-04T01:38:00;98991.97;;;-6.61;100.00
65756;BME280;69208;47.502;18.940;2023-12-04T01:39:03;98994.84;;;-6.65;100.00
65756;BME280;69208;47.502;18.940;2023-12-04T01:40:06;98989.75;;;-6.65;100.00
65756;BME280;69208;47.502;18.940;2023-12-04T01:41:10;98994.00;;;-6.57;100.00
65756;BME280;69208;47.502;18.940;2023-12-04T01:42:13;98998.47;;;-6.51;100.00
65756;BME280;69208;47.502;18.940;2023-12-04T01:43:16;98994.47;;;-6.45;100.00
65756;BME280;69208;47.502;18.940;2023-12-04T01:44:19;99004.06;;;-6.47;100.00
65756;BME280;69208;47.502;18.940;2023-12-04T01:45:22;99002.63;;;-6.50;100.00
65756;BME280;69208;47.502;18.940;2023-12-04T01:46:25;98998.19;;;-6.56;100.00
65756;BME280;69208;47.502;18.940;2023-12-04T01:47:29;98993.72;;;-6.62;100.00
65756;BME280;69208;47.502;18.940;2023-12-04T01:48:32;98996.09;;;-6.60;100.00
65756;BME280;69208;47.502;18.940;2023-12-04T01:49:36;98995.91;;;-6.51;100.00
65756;BME280;69208;47.502;18.940;2023-12-04T01:50:39;98989.56;;;-6.55;100.00
65756;BME280;69208;47.502;18.940;2023-12-04T01:51:42;99001.66;;;-6.57;100.00
65756;BME280;69208;47.502;18.940;2023-12-04T01:52:47;99002.31;;;-6.55;100.00
65756;BME280;69208;47.502;18.940;2023-12-04T01:53:50;99000.06;;;-6.50;100.00
65756;BME280;69208;47.502;18.940;2023-12-04T01:54:54;98994.97;;;-6.42;100.00
65756;BME280;69208;47.502;18.940;2023-12-04T01:55:56;98991.78;;;-6.44;100.00
65756;BME280;69208;47.502;18.940;2023-12-04T01:57:01;98996.75;;;-6.50;100.00
65756;BME280;69208;47.502;18.940;2023-12-04T01:58:05;98995.13;;;-6.43;100.00
65756;BME280;69208;47.502;18.940;2023-12-04T01:59:09;98999.44;;;-6.52;100.00
65756;BME280;69208;47.502;18.940;2023-12-04T02:00:13;99001.34;;;-6.54;100.00
65756;BME280;69208;47.502;18.940;2023-12-04T02:01:18;98999.28;;;-6.67;100.00
65756;BME280;69208;47.502;18.940;2023-12-04T02:02:22;98999.59;;;-6.61;100.00
65756;BME280;69208;47.502;18.940;2023-12-04T02:03:25;99000.88;;;-6.57;100.00
65756;BME280;69208;47.502;18.940;2023-12-04T02:04:30;98999.28;;;-6.58;100.00
65756;BME280;69208;47.502;18.940;2023-12-04T02:05:34;99007.41;;;-6.63;100.00
65756;BME280;69208;47.502;18.940;2023-12-04T02:06:40;99005.97;;;-6.66;100.00
65756;BME280;69208;47.502;18.940;2023-12-04T02:07:43;99003.75;;;-6.60;100.00
65756;BME280;69208;47.502;18.940;2023-12-04T02:08:47;99003.88;;;-6.54;100.00
65756;BME280;69208;47.502;18.940;2023-12-04T02:09:50;98995.44;;;-6.54;100.00
65756;BME280;69208;47.502;18.940;2023-12-04T02:10:54;98994.66;;;-6.63;100.00
65756;BME280;69208;47.502;18.940;2023-12-04T02:11:58;98991.78;;;-6.60;100.00
65756;BME280;69208;47.502;18.940;2023-12-04T02:13:02;98987.47;;;-6.51;100.00
65756;BME280;69208;47.502;18.940;2023-12-04T02:14:06;98987.97;;;-6.56;100.00
65756;BME280;69208;47.502;18.940;2023-12-04T02:15:09;98993.06;;;-6.56;100.00
65756;BME280;69208;47.502;18.940;2023-12-04T02:16:13;98991.66;;;-6.58;100.00
65756;BME280;69208;47.502;18.940;2023-12-04T02:17:17;98993.22;;;-6.66;100.00
65756;BME280;69208;47.502;18.940;2023-12-04T02:18:21;99003.59;;;-6.67;100.00
65756;BME280;69208;47.502;18.940;2023-12-04T02:19:25;98989.28;;;-6.68;100.00
65756;BME280;69208;47.502;18.940;2023-12-04T02:20:35;98993.41;;;-6.67;100.00
65756;BME280;69208;47.502;18.940;2023-12-04T02:21:38;99001.97;;;-6.60;100.00
65756;BME280;69208;47.502;18.940;2023-12-04T02:22:41;99000.72;;;-6.64;100.00
65756;BME280;69208;47.502;18.940;2023-12-04T02:23:52;99007.25;;;-6.61;100.00
65756;BME280;69208;47.502;18.940;2023-12-04T02:24:55;99002.81;;;-6.68;100.00
65756;BME280;69208;47.502;18.940;2023-12-04T02:26:13;99001.69;;;-6.65;100.00
65756;BME280;69208;47.502;18.940;2023-12-04T02:27:28;99003.75;;;-6.69;100.00
65756;BME280;69208;47.502;18.940;2023-12-04T02:28:35;98995.78;;;-6.66;100.00
65756;BME280;69208;47.502;18.940;2023-12-04T02:29:46;98994.66;;;-6.63;100.00
65756;BME280;69208;47.502;18.940;2023-12-04T02:30:50;98995.94;;;-6.67;100.00
65756;BME280;69208;47.502;18.940;2023-12-04T02:31:55;98992.09;;;-6.55;100.00
65756;BME280;69208;47.502;18.940;2023-12-04T02:33:01;98989.88;;;-6.58;100.00
65756;BME280;69208;47.502;18.940;2023-12-04T02:34:06;98991.47;;;-6.57;100.00
65756;BME280;69208;47.502;18.940;2023-12-04T02:35:10;98990.03;;;-6.51;100.00
65756;BME280;69208;47.502;18.940;2023-12-04T02:36:15;98979.22;;;-6.53;100.00
65756;BME280;69208;47.502;18.940;2023-12-04T02:37:19;98990.53;;;-6.56;100.00
65756;BME280;69208;47.502;18.940;2023-12-04T02:38:23;98980.66;;;-6.59;100.00
65756;BME280;69208;47.502;18.940;2023-12-04T02:39:27;98991.78;;;-6.60;100.00
65756;BME280;69208;47.502;18.940;2023-12-04T02:40:30;98974.28;;;-6.63;100.00
65756;BME280;69208;47.502;18.940;2023-12-04T02:41:33;98991.00;;;-6.60;100.00
65756;BME280;69208;47.502;18.940;2023-12-04T02:42:36;98986.69;;;-6.60;100.00
65756;BME280;69208;47.502;18.940;2023-12-04T02:43:39;98985.28;;;-6.71;100.00
65756;BME280;69208;47.502;18.940;2023-12-04T02:44:42;98986.22;;;-6.64;100.00
65756;BME280;69208;47.502;18.940;2023-12-04T02:45:46;98993.06;;;-6.64;100.00
65756;BME280;69208;47.502;18.940;2023-12-04T02:46:49;98987.34;;;-6.58;100.00
65756;BME280;69208;47.502;18.940;2023-12-04T02:47:52;98988.91;;;-6.57;100.00
65756;BME280;69208;47.502;18.940;2023-12-04T02:48:55;98987.66;;;-6.53;100.00
65756;BME280;69208;47.502;18.940;2023-12-04T02:49:58;98990.22;;;-6.61;100.00
65756;BME280;69208;47.502;18.940;2023-12-04T02:51:02;98989.75;;;-6.65;100.00
65756;BME280;69208;47.502;18.940;2023-12-04T02:52:06;98995.47;;;-6.71;100.00
65756;BME280;69208;47.502;18.940;2023-12-04T02:53:09;98991.81;;;-6.76;100.00
65756;BME280;69208;47.502;18.940;2023-12-04T02:54:12;99002.31;;;-6.79;100.00
65756;BME280;69208;47.502;18.940;2023-12-04T02:55:15;99005.19;;;-6.91;100.00
65756;BME280;69208;47.502;18.940;2023-12-04T02:56:19;99002.63;;;-6.91;100.00
65756;BME280;69208;47.502;18.940;2023-12-04T02:57:22;98996.91;;;-6.76;100.00
65756;BME280;69208;47.502;18.940;2023-12-04T02:58:25;99009.97;;;-6.79;100.00
65756;BME280;69208;47.502;18.940;2023-12-04T02:59:28;99009.81;;;-6.70;100.00
65756;BME280;69208;47.502;18.940;2023-12-04T03:00:31;99006.00;;;-6.74;100.00
65756;BME280;69208;47.502;18.940;2023-12-04T03:01:34;99008.53;;;-6.74;100.00
65756;BME280;69208;47.502;18.940;2023-12-04T03:02:37;99004.88;;;-6.79;100.00
65756;BME280;69208;47.502;18.940;2023-12-04T03:03:40;99011.22;;;-6.83;100.00
65756;BME280;69208;47.502;18.940;2023-12-04T03:04:44;99007.25;;;-6.78;100.00
65756;BME280;69208;47.502;18.940;2023-12-04T03:05:47;99003.28;;;-6.72;100.00
65756;BME280;69208;47.502;18.940;2023-12-04T03:06:50;99008.38;;;-6.72;100.00
65756;BME280;69208;47.502;18.940;2023-12-04T03:07:53;99019.84;;;-6.76;100.00
65756;BME280;69208;47.502;18.940;2023-12-04T03:08:56;99021.09;;;-6.80;100.00
65756;BME280;69208;47.502;18.940;2023-12-04T03:10:00;99017.94;;;-6.74;100.00
65756;BME280;69208;47.502;18.940;2023-12-04T03:11:03;99011.88;;;-6.73;100.00
65756;BME280;69208;47.502;18.940;2023-12-04T03:12:06;99011.56;;;-6.70;100.00
65756;BME280;69208;47.502;18.940;2023-12-04T03:13:09;99011.56;;;-6.70;100.00
65756;BME280;69208;47.502;18.940;2023-12-04T03:14:12;99015.22;;;-6.81;100.00
65756;BME280;69208;47.502;18.940;2023-12-04T03:15:15;99014.09;;;-6.87;100.00
65756;BME280;69208;47.502;18.940;2023-12-04T03:16:18;99007.56;;;-6.89;100.00
65756;BME280;69208;47.502;18.940;2023-12-04T03:17:21;99016.66;;;-6.78;100.00
65756;BME280;69208;47.502;18.940;2023-12-04T03:18:24;99018.53;;;-6.80;100.00
65756;BME280;69208;47.502;18.940;2023-12-04T03:19:29;99014.28;;;-6.80;100.00
65756;BME280;69208;47.502;18.940;2023-12-04T03:20:32;99016.19;;;-6.82;100.00
65756;BME280;69208;47.502;18.940;2023-12-04T03:21:35;99019.50;;;-6.81;100.00
65756;BME280;69208;47.502;18.940;2023-12-04T03:22:38;99023.50;;;-6.87;100.00
65756;BME280;69208;47.502;18.940;2023-12-04T03:23:41;99022.22;;;-6.83;100.00
65756;BME280;69208;47.502;18.940;2023-12-04T03:24:44;99023.03;;;-6.82;100.00
65756;BME280;69208;47.502;18.940;2023-12-04T03:25:48;99029.56;;;-6.80;100.00
65756;BME280;69208;47.502;18.940;2023-12-04T03:26:51;99022.22;;;-6.91;100.00
65756;BME280;69208;47.502;18.940;2023-12-04T03:27:54;99028.25;;;-6.84;100.00
65756;BME280;69208;47.502;18.940;2023-12-04T03:28:57;99022.56;;;-6.86;100.00
65756;BME280;69208;47.502;18.940;2023-12-04T03:29:59;99025.41;;;-6.81;100.00
65756;BME280;69208;47.502;18.940;2023-12-04T03:31:02;99021.28;;;-6.82;100.00
65756;BME280;69208;47.502;18.940;2023-12-04T03:32:06;99033.22;;;-6.82;100.00
65756;BME280;69208;47.502;18.940;2023-12-04T03:33:09;99026.84;;;-6.78;100.00
65756;BME280;69208;47.502;18.940;2023-12-04T03:34:13;99026.84;;;-6.70;100.00
65756;BME280;69208;47.502;18.940;2023-12-04T03:35:16;99026.84;;;-6.78;100.00
65756;BME280;69208;47.502;18.940;2023-12-04T03:36:19;99034.31;;;-6.85;100.00
65756;BME280;69208;47.502;18.940;2023-12-04T03:37:22;99030.19;;;-6.78;100.00
65756;BME280;69208;47.502;18.940;2023-12-04T03:38:26;99031.13;;;-6.87;100.00
65756;BME280;69208;47.502;18.940;2023-12-04T03:39:29;99026.84;;;-6.95;100.00
65756;BME280;69208;47.502;18.940;2023-12-04T03:40:32;99026.84;;;-6.95;100.00
65756;BME280;69208;47.502;18.940;2023-12-04T03:41:35;99023.66;;;-6.89;100.00
65756;BME280;69208;47.502;18.940;2023-12-04T03:42:38;99028.75;;;-6.89;100.00
65756;BME280;69208;47.502;18.940;2023-12-04T03:43:41;99024.28;;;-6.95;100.00
65756;BME280;69208;47.502;18.940;2023-12-04T03:44:44;99024.44;;;-6.96;100.00
65756;BME280;69208;47.502;18.940;2023-12-04T03:45:47;99026.34;;;-7.06;100.00
65756;BME280;69208;47.502;18.940;2023-12-04T03:46:50;99032.41;;;-6.99;100.00
65756;BME280;69208;47.502;18.940;2023-12-04T03:47:54;99026.50;;;-7.00;100.00
65756;BME280;69208;47.502;18.940;2023-12-04T03:48:57;99031.75;;;-7.01;100.00
65756;BME280;69208;47.502;18.940;2023-12-04T03:50:00;99030.16;;;-7.02;100.00
65756;BME280;69208;47.502;18.940;2023-12-04T03:51:05;99023.34;;;-6.94;100.00
65756;BME280;69208;47.502;18.940;2023-12-04T03:52:08;99023.50;;;-6.87;100.00
65756;BME280;69208;47.502;18.940;2023-12-04T03:53:11;99020.63;;;-6.84;100.00
65756;BME280;69208;47.502;18.940;2023-12-04T03:54:14;99017.63;;;-6.79;100.00
65756;BME280;69208;47.502;18.940;2023-12-04T03:55:17;99015.41;;;-6.74;100.00
65756;BME280;69208;47.502;18.940;2023-12-04T03:56:22;99015.38;;;-6.82;100.00
65756;BME280;69208;47.502;18.940;2023-12-04T03:57:25;99013.94;;;-6.85;100.00
65756;BME280;69208;47.502;18.940;2023-12-04T03:58:29;99012.03;;;-6.83;100.00
65756;BME280;69208;47.502;18.940;2023-12-04T03:59:32;99008.03;;;-6.77;100.00
65756;BME280;69208;47.502;18.940;2023-12-04T04:00:34;99006.47;;;-6.70;100.00
65756;BME280;69208;47.502;18.940;2023-12-04T04:01:38;99005.97;;;-6.66;100.00
65756;BME280;69208;47.502;18.940;2023-12-04T04:02:42;99004.22;;;-6.73;100.00
65756;BME280;69208;47.502;18.940;2023-12-04T04:03:45;99003.25;;;-6.80;100.00
65756;BME280;69208;47.502;18.940;2023-12-04T04:04:48;99006.12;;;-6.83;100.00
65756;BME280;69208;47.502;18.940;2023-12-04T04:05:51;98999.94;;;-6.81;100.00
65756;BME280;69208;47.502;18.940;2023-12-04T04:06:54;98999.94;;;-6.81;100.00
65756;BME280;69208;47.502;18.940;2023-12-04T04:07:57;98997.38;;;-6.81;100.00
65756;BME280;69208;47.502;18.940;2023-12-04T04:09:00;99000.56;;;-6.87;100.00
65756;BME280;69208;47.502;18.940;2023-12-04T04:10:03;99002.78;;;-6.92;100.00
65756;BME280;69208;47.502;18.940;2023-12-04T04:11:07;99004.84;;;-6.96;100.00
65756;BME280;69208;47.502;18.940;2023-12-04T04:12:10;98998.66;;;-6.85;100.00
65756;BME280;69208;47.502;18.940;2023-12-04T04:13:13;99001.53;;;-6.88;100.00
65756;BME280;69208;47.502;18.940;2023-12-04T04:14:16;98994.03;;;-6.90;100.00
65756;BME280;69208;47.502;18.940;2023-12-04T04:15:19;98994.19;;;-6.91;100.00
65756;BME280;69208;47.502;18.940;2023-12-04T04:16:22;98991.97;;;-6.86;100.00
65756;BME280;69208;47.502;18.940;2023-12-04T04:17:25;98990.22;;;-6.85;100.00
65756;BME280;69208;47.502;18.940;2023-12-04T04:18:31;98994.19;;;-6.75;100.00
65756;BME280;69208;47.502;18.940;2023-12-04T04:19:34;98993.88;;;-6.72;100.00
65756;BME280;69208;47.502;18.940;2023-12-04T04:20:38;98984.00;;;-6.75;100.00
65756;BME280;69208;47.502;18.940;2023-12-04T04:21:40;98985.75;;;-6.75;100.00
65756;BME280;69208;47.502;18.940;2023-12-04T04:22:44;98988.16;;;-6.74;100.00
65756;BME280;69208;47.502;18.940;2023-12-04T04:23:47;98983.69;;;-6.72;100.00
65756;BME280;69208;47.502;18.940;2023-12-04T04:24:49;98981.63;;;-6.76;100.00
65756;BME280;69208;47.502;18.940;2023-12-04T04:25:52;98984.00;;;-6.75;100.00
65756;BME280;69208;47.502;18.940;2023-12-04T04:26:55;98982.75;;;-6.79;100.00
65756;BME280;69208;47.502;18.940;2023-12-04T04:27:58;98995.81;;;-6.74;100.00
65756;BME280;69208;47.502;18.940;2023-12-04T04:29:01;98997.56;;;-6.74;100.00
65756;BME280;69208;47.502;18.940;2023-12-04T04:30:05;98994.50;;;-6.70;100.00
65756;BME280;69208;47.502;18.940;2023-12-04T04:31:08;98996.28;;;-6.70;100.00
65756;BME280;69208;47.502;18.940;2023-12-04T04:32:11;98988.47;;;-6.77;100.00
65756;BME280;69208;47.502;18.940;2023-12-04T04:33:16;98998.16;;;-6.80;100.00
65756;BME280;69208;47.502;18.940;2023-12-04T04:34:21;98999.12;;;-6.73;100.00
65756;BME280;69208;47.502;18.940;2023-12-04T04:35:24;98997.84;;;-6.77;100.00
65756;BME280;69208;47.502;18.940;2023-12-04T04:36:27;99002.16;;;-6.78;100.00
65756;BME280;69208;47.502;18.940;2023-12-04T04:37:30;99001.53;;;-6.80;100.00
65756;BME280;69208;47.502;18.940;2023-12-04T04:38:33;99009.19;;;-6.80;100.00
65756;BME280;69208;47.502;18.940;2023-12-04T04:39:36;99005.34;;;-6.84;100.00
65756;BME280;69208;47.502;18.940;2023-12-04T04:40:39;99002.19;;;-6.86;100.00
65756;BME280;69208;47.502;18.940;2023-12-04T04:41:44;99002.78;;;-6.92;100.00
65756;BME280;69208;47.502;18.940;2023-12-04T04:42:48;99002.31;;;-6.88;100.00
65756;BME280;69208;47.502;18.940;2023-12-04T04:43:51;98998.81;;;-6.87;100.00
65756;BME280;69208;47.502;18.940;2023-12-04T04:44:54;99005.34;;;-6.84;100.00
65756;BME280;69208;47.502;18.940;2023-12-04T04:45:56;98999.94;;;-6.81;100.00
65756;BME280;69208;47.502;18.940;2023-12-04T04:46:59;99000.41;;;-6.85;100.00
65756;BME280;69208;47.502;18.940;2023-12-04T04:48:03;99005.19;;;-6.82;100.00
65756;BME280;69208;47.502;18.940;2023-12-04T04:49:05;99000.88;;;-6.82;100.00
65756;BME280;69208;47.502;18.940;2023-12-04T04:50:09;99008.84;;;-6.85;100.00
65756;BME280;69208;47.502;18.940;2023-12-04T04:51:13;99008.53;;;-6.82;100.00
65756;BME280;69208;47.502;18.940;2023-12-04T04:52:16;98999.62;;;-6.86;100.00
65756;BME280;69208;47.502;18.940;2023-12-04T04:53:19;99016.00;;;-6.80;100.00
65756;BME280;69208;47.502;18.940;2023-12-04T04:54:22;99008.69;;;-6.83;100.00
65756;BME280;69208;47.502;18.940;2023-12-04T04:55:25;99006.28;;;-6.93;100.00
65756;BME280;69208;47.502;18.940;2023-12-04T04:56:48;99011.72;;;-6.88;100.00
65756;BME280;69208;47.502;18.940;2023-12-04T04:57:52;99009.31;;;-6.81;100.00
65756;BME280;69208;47.502;18.940;2023-12-04T04:58:54;99017.28;;;-6.76;100.00
65756;BME280;69208;47.502;18.940;2023-12-04T04:59:58;99017.94;;;-6.74;100.00
65756;BME280;69208;47.502;18.940;2023-12-04T05:01:02;99011.56;;;-6.70;100.00
65756;BME280;69208;47.502;18.940;2023-12-04T05:02:05;99023.03;;;-6.74;100.00
65756;BME280;69208;47.502;18.940;2023-12-04T05:03:09;99021.28;;;-6.74;100.00
65756;BME280;69208;47.502;18.940;2023-12-04T05:04:12;99025.25;;;-6.71;100.00
65756;BME280;69208;47.502;18.940;2023-12-04T05:05:15;99024.44;;;-6.72;100.00
65756;BME280;69208;47.502;18.940;2023-12-04T05:06:18;99020.97;;;-6.71;100.00
65756;BME280;69208;47.502;18.940;2023-12-04T05:07:21;99025.59;;;-6.74;100.00
65756;BME280;69208;47.502;18.940;2023-12-04T05:08:24;99026.37;;;-6.74;100.00
65756;BME280;69208;47.502;18.940;2023-12-04T05:09:27;99022.53;;;-6.78;100.00
65756;BME280;69208;47.502;18.940;2023-12-04T05:10:31;99025.41;;;-6.73;100.00
65756;BME280;69208;47.502;18.940;2023-12-04T05:11:34;99031.28;;;-6.72;100.00
65756;BME280;69208;47.502;18.940;2023-12-04T05:12:37;99025.41;;;-6.73;100.00
65756;BME280;69208;47.502;18.940;2023-12-04T05:13:40;99025.41;;;-6.73;100.00
65756;BME280;69208;47.502;18.940;2023-12-04T05:14:43;99025.59;;;-6.74;100.00
65756;BME280;69208;47.502;18.940;2023-12-04T05:15:46;99021.28;;;-6.74;100.00
65756;BME280;69208;47.502;18.940;2023-12-04T05:16:49;99014.88;;;-6.78;100.00
65756;BME280;69208;47.502;18.940;2023-12-04T05:17:53;99029.84;;;-6.75;100.00
65756;BME280;69208;47.502;18.940;2023-12-04T05:18:56;99023.81;;;-6.74;100.00
65756;BME280;69208;47.502;18.940;2023-12-04T05:19:59;99024.31;;;-6.70;100.00
65756;BME280;69208;47.502;18.940;2023-12-04T05:21:03;99026.84;;;-6.70;100.00
65756;BME280;69208;47.502;18.940;2023-12-04T05:22:06;99025.72;;;-6.68;100.00
65756;BME280;69208;47.502;18.940;2023-12-04T05:23:09;99026.84;;;-6.70;100.00
65756;BME280;69208;47.502;18.940;2023-12-04T05:24:12;99023.19;;;-6.68;100.00
65756;BME280;69208;47.502;18.940;2023-12-04T05:25:15;99023.66;;;-6.64;100.00
65756;BME280;69208;47.502;18.940;2023-12-04T05:26:18;99020.31;;;-6.65;100.00
65756;BME280;69208;47.502;18.940;2023-12-04T05:27:21;99020.78;;;-6.61;100.00